sensor_id;sensor_type;location;lat;lon;timestamp;pressure;altitude;pressure_sealevel;temperature;humidity
78590;BME280;67888;50.228;7.828;2023-03-05T00:03:04;99532.69;;;3.07;84.48
78590;BME280;67888;50.228;7.828;2023-03-05T00:08:04;99529.97;;;2.96;84.52
78590;BME280;67888;50.228;7.828;2023-03-05T00:13:05;99538.84;;;2.81;84.97
78590;BME280;67888;50.228;7.828;2023-03-05T00:18:06;99537.97;;;2.94;84.15
78590;BME280;67888;50.228;7.828;2023-03-05T00:23:07;99530.91;;;2.70;84.85
78590;BME280;67888;50.228;7.828;2023-03-05T00:28:08;99524.91;;;2.76;84.77
78590;BME280;67888;50.228;7.828;2023-03-05T00:33:11;99534.69;;;2.74;85.13
78590;BME280;67888;50.228;7.828;2023-03-05T00:38:11;99531.69;;;2.77;84.74
78590;BME280;67888;50.228;7.828;2023-03-05T00:43:12;99523.59;;;2.92;83.76
78590;BME280;67888;50.228;7.828;2023-03-05T00:48:13;99509.91;;;2.78;84.16
78590;BME280;67888;50.228;7.828;2023-03-05T00:53:13;99512.63;;;2.90;83.28
78590;BME280;67888;50.228;7.828;2023-03-05T00:58:13;99499.44;;;2.91;82.62
78590;BME280;67888;50.228;7.828;2023-03-05T01:03:14;99490.38;;;3.00;82.01
78590;BME280;67888;50.228;7.828;2023-03-05T01:08:14;99488.16;;;3.04;81.62
78590;BME280;67888;50.228;7.828;2023-03-05T01:13:15;99485.59;;;2.97;81.71
78590;BME280;67888;50.228;7.828;2023-03-05T01:18:17;99480.19;;;2.61;83.46
78590;BME280;67888;50.228;7.828;2023-03-05T01:23:18;99481.31;;;2.78;82.83
78590;BME280;67888;50.228;7.828;2023-03-05T01:28:18;99479.19;;;2.93;81.13
78590;BME280;67888;50.228;7.828;2023-03-05T01:33:19;99471.88;;;2.83;81.25
78590;BME280;67888;50.228;7.828;2023-03-05T01:38:19;99460.41;;;2.60;82.10
78590;BME280;67888;50.228;7.828;2023-03-05T01:43:23;99457.41;;;2.63;80.22
78590;BME280;67888;50.228;7.828;2023-03-05T01:48:23;99453.34;;;2.73;80.12
78590;BME280;67888;50.228;7.828;2023-03-05T01:53:24;99453.09;;;2.81;80.25
78590;BME280;67888;50.228;7.828;2023-03-05T01:58:24;99441.75;;;2.76;81.03
78590;BME280;67888;50.228;7.828;2023-03-05T02:03:25;99443.38;;;2.70;81.92
78590;BME280;67888;50.228;7.828;2023-03-05T02:08:25;99431.19;;;2.71;81.19
78590;BME280;67888;50.228;7.828;2023-03-05T02:13:28;99436.59;;;2.69;81.32
78590;BME280;67888;50.228;7.828;2023-03-05T02:18:31;99429.88;;;2.55;82.18
78590;BME280;67888;50.228;7.828;2023-03-05T02:23:33;99424.66;;;2.62;82.17
78590;BME280;67888;50.228;7.828;2023-03-05T02:28:57;99421.06;;;2.56;82.47
78590;BME280;67888;50.228;7.828;2023-03-05T02:33:59;99413.06;;;2.58;82.93
78590;BME280;67888;50.228;7.828;2023-03-05T02:39:00;99407.06;;;2.64;82.77
78590;BME280;67888;50.228;7.828;2023-03-05T02:44:00;99396.66;;;2.64;82.95
78590;BME280;67888;50.228;7.828;2023-03-05T02:49:01;99401.50;;;2.53;83.19
78590;BME280;67888;50.228;7.828;2023-03-05T02:54:01;99398.34;;;2.51;83.17
78590;BME280;67888;50.228;7.828;2023-03-05T02:59:02;99389.56;;;2.53;82.77
78590;BME280;67888;50.228;7.828;2023-03-05T03:04:02;99392.97;;;2.46;82.24
78590;BME280;67888;50.228;7.828;2023-03-05T03:09:02;99385.59;;;2.43;82.83
78590;BME280;67888;50.228;7.828;2023-03-05T03:14:03;99382.84;;;2.38;82.26
78590;BME280;67888;50.228;7.828;2023-03-05T03:19:03;99378.84;;;2.36;83.70
78590;BME280;67888;50.228;7.828;2023-03-05T03:24:05;99384.84;;;2.36;83.62
78590;BME280;67888;50.228;7.828;2023-03-05T03:29:06;99380.25;;;2.32;83.80
78590;BME280;67888;50.228;7.828;2023-03-05T03:34:07;99382.56;;;2.15;84.29
78590;BME280;67888;50.228;7.828;2023-03-05T03:39:07;99377.78;;;2.12;84.07
78590;BME280;67888;50.228;7.828;2023-03-05T03:44:09;99379.78;;;2.10;84.56
78590;BME280;67888;50.228;7.828;2023-03-05T03:49:18;99369.53;;;2.22;84.17
78590;BME280;67888;50.228;7.828;2023-03-05T03:54:20;99366.63;;;2.05;84.39
78590;BME280;67888;50.228;7.828;2023-03-05T03:59:21;99368.25;;;1.99;84.51
78590;BME280;67888;50.228;7.828;2023-03-05T04:04:22;99362.22;;;2.05;84.35
78590;BME280;67888;50.228;7.828;2023-03-05T04:09:22;99364.63;;;2.07;83.35
78590;BME280;67888;50.228;7.828;2023-03-05T04:14:23;99359.09;;;1.97;84.65
78590;BME280;67888;50.228;7.828;2023-03-05T04:19:23;99356.91;;;1.94;83.94
78590;BME280;67888;50.228;7.828;2023-03-05T04:24:24;99347.16;;;1.89;84.72
78590;BME280;67888;50.228;7.828;2023-03-05T04:29:24;99349.13;;;1.94;83.23
78590;BME280;67888;50.228;7.828;2023-03-05T04:34:25;99345.03;;;2.11;82.10
78590;BME280;67888;50.228;7.828;2023-03-05T04:39:25;99350.47;;;2.03;82.69
78590;BME280;67888;50.228;7.828;2023-03-05T04:44:26;99340.66;;;2.05;82.75
78590;BME280;67888;50.228;7.828;2023-03-05T04:49:27;99336.28;;;2.05;83.06
78590;BME280;67888;50.228;7.828;2023-03-05T04:54:28;99334.03;;;2.15;82.63
78590;BME280;67888;50.228;7.828;2023-03-05T04:59:28;99323.81;;;2.21;82.58
78590;BME280;67888;50.228;7.828;2023-03-05T05:04:29;99309.44;;;2.18;82.49
78590;BME280;67888;50.228;7.828;2023-03-05T05:09:31;99310.22;;;2.25;82.04
78590;BME280;67888;50.228;7.828;2023-03-05T05:14:33;99307.97;;;1.97;83.36
78590;BME280;67888;50.228;7.828;2023-03-05T05:19:34;99302.94;;;2.09;83.15
78590;BME280;67888;50.228;7.828;2023-03-05T05:24:34;99300.72;;;2.12;82.63
78590;BME280;67888;50.228;7.828;2023-03-05T05:29:34;99292.34;;;2.10;82.47
78590;BME280;67888;50.228;7.828;2023-03-05T05:34:35;99302.38;;;2.00;82.80
78590;BME280;67888;50.228;7.828;2023-03-05T05:39:35;99299.16;;;2.05;82.31
78590;BME280;67888;50.228;7.828;2023-03-05T05:44:36;99302.41;;;1.94;82.20
78590;BME280;67888;50.228;7.828;2023-03-05T05:49:36;99305.00;;;1.94;81.91
78590;BME280;67888;50.228;7.828;2023-03-05T05:54:37;99308.44;;;1.88;81.88
78590;BME280;67888;50.228;7.828;2023-03-05T05:59:38;99310.03;;;1.89;82.03
78590;BME280;67888;50.228;7.828;2023-03-05T06:04:39;99297.69;;;1.77;82.08
78590;BME280;67888;50.228;7.828;2023-03-05T06:09:39;99299.28;;;1.85;82.10
78590;BME280;67888;50.228;7.828;2023-03-05T06:14:39;99295.75;;;1.73;81.62
78590;BME280;67888;50.228;7.828;2023-03-05T06:19:40;99295.38;;;1.63;82.52
78590;BME280;67888;50.228;7.828;2023-03-05T06:24:40;99290.75;;;1.71;82.13
78590;BME280;67888;50.228;7.828;2023-03-05T06:29:41;99294.84;;;1.92;81.33
78590;BME280;67888;50.228;7.828;2023-03-05T06:34:41;99290.47;;;1.86;80.68
78590;BME280;67888;50.228;7.828;2023-03-05T06:39:42;99298.47;;;1.85;80.94
78590;BME280;67888;50.228;7.828;2023-03-05T06:44:42;99296.13;;;1.76;80.75
78590;BME280;67888;50.228;7.828;2023-03-05T06:49:43;99303.31;;;1.74;82.07
78590;BME280;67888;50.228;7.828;2023-03-05T06:54:43;99306.72;;;1.68;83.37
78590;BME280;67888;50.228;7.828;2023-03-05T06:59:43;99304.47;;;1.78;81.28
78590;BME280;67888;50.228;7.828;2023-03-05T07:04:45;99306.44;;;1.90;80.36
78590;BME280;67888;50.228;7.828;2023-03-05T07:09:46;99296.81;;;1.97;79.60
78590;BME280;67888;50.228;7.828;2023-03-05T07:14:49;99293.13;;;2.11;78.78
78590;BME280;67888;50.228;7.828;2023-03-05T07:19:50;99292.41;;;1.97;79.67
78590;BME280;67888;50.228;7.828;2023-03-05T07:24:50;99294.09;;;1.78;81.16
78590;BME280;67888;50.228;7.828;2023-03-05T07:29:50;99297.00;;;2.02;79.93
78590;BME280;67888;50.228;7.828;2023-03-05T07:34:51;99291.88;;;2.20;79.30
78590;BME280;67888;50.228;7.828;2023-03-05T07:39:51;99295.47;;;2.19;76.60
78590;BME280;67888;50.228;7.828;2023-03-05T07:44:52;99289.06;;;2.22;76.41
78590;BME280;67888;50.228;7.828;2023-03-05T07:49:52;99287.91;;;2.42;77.00
78590;BME280;67888;50.228;7.828;2023-03-05T07:54:52;99287.78;;;2.37;75.06
78590;BME280;67888;50.228;7.828;2023-03-05T07:59:53;99295.91;;;2.41;76.57
78590;BME280;67888;50.228;7.828;2023-03-05T08:04:54;99293.78;;;2.31;77.46
78590;BME280;67888;50.228;7.828;2023-03-05T08:09:54;99285.06;;;2.26;77.81
78590;BME280;67888;50.228;7.828;2023-03-05T08:14:55;99291.06;;;2.26;76.62
78590;BME280;67888;50.228;7.828;2023-03-05T08:19:55;99275.25;;;1.96;78.00
78590;BME280;67888;50.228;7.828;2023-03-05T08:24:59;99270.41;;;2.06;78.15
78590;BME280;67888;50.228;7.828;2023-03-05T08:30:00;99267.41;;;2.34;77.00
78590;BME280;67888;50.228;7.828;2023-03-05T08:35:03;99264.50;;;2.24;77.46
78590;BME280;67888;50.228;7.828;2023-03-05T08:40:04;99259.41;;;2.36;75.90
78590;BME280;67888;50.228;7.828;2023-03-05T08:45:06;99260.81;;;2.38;75.20
78590;BME280;67888;50.228;7.828;2023-03-05T08:50:26;99255.97;;;2.42;76.27
78590;BME280;67888;50.228;7.828;2023-03-05T08:55:27;99262.81;;;2.61;75.37
78590;BME280;67888;50.228;7.828;2023-03-05T09:00:28;99248.75;;;2.69;75.01
78590;BME280;67888;50.228;7.828;2023-03-05T09:05:28;99255.34;;;2.46;77.02
78590;BME280;67888;50.228;7.828;2023-03-05T09:10:29;99253.22;;;2.12;76.80
78590;BME280;67888;50.228;7.828;2023-03-05T09:15:30;99255.84;;;2.30;77.85
78590;BME280;67888;50.228;7.828;2023-03-05T09:20:30;99241.13;;;2.49;77.33
78590;BME280;67888;50.228;7.828;2023-03-05T09:25:31;99239.81;;;2.65;76.88
78590;BME280;67888;50.228;7.828;2023-03-05T09:30:31;99237.78;;;2.67;75.77
78590;BME280;67888;50.228;7.828;2023-03-05T09:35:34;99236.94;;;2.73;75.98
78590;BME280;67888;50.228;7.828;2023-03-05T09:40:52;99231.16;;;2.71;74.70
78590;BME280;67888;50.228;7.828;2023-03-05T09:51:22;99224.81;;;2.85;74.17
78590;BME280;67888;50.228;7.828;2023-03-05T09:56:28;99218.44;;;2.81;74.36
78590;BME280;67888;50.228;7.828;2023-03-05T10:01:36;99211.59;;;3.05;74.33
78590;BME280;67888;50.228;7.828;2023-03-05T10:07:07;99216.00;;;2.86;74.32
78590;BME280;67888;50.228;7.828;2023-03-05T10:12:37;99208.78;;;3.06;74.91
78590;BME280;67888;50.228;7.828;2023-03-05T10:17:45;99208.09;;;2.99;73.47
78590;BME280;67888;50.228;7.828;2023-03-05T10:28:08;99186.63;;;3.22;72.46
78590;BME280;67888;50.228;7.828;2023-03-05T10:44:58;99162.72;;;3.73;72.15
78590;BME280;67888;50.228;7.828;2023-03-05T10:49:59;99140.47;;;4.59;66.58
78590;BME280;67888;50.228;7.828;2023-03-05T10:55:00;99143.59;;;4.84;66.36
78590;BME280;67888;50.228;7.828;2023-03-05T11:00:15;99136.13;;;4.76;65.60
78590;BME280;67888;50.228;7.828;2023-03-05T11:05:41;99125.38;;;4.73;67.87
78590;BME280;67888;50.228;7.828;2023-03-05T11:10:42;99123.09;;;4.76;64.24
78590;BME280;67888;50.228;7.828;2023-03-05T11:15:42;99123.16;;;4.41;63.51
78590;BME280;67888;50.228;7.828;2023-03-05T11:20:42;99110.44;;;4.56;66.25
78590;BME280;67888;50.228;7.828;2023-03-05T11:31:29;99108.09;;;4.55;65.14
78590;BME280;67888;50.228;7.828;2023-03-05T11:36:36;99107.88;;;4.21;64.28
78590;BME280;67888;50.228;7.828;2023-03-05T11:41:42;99102.22;;;4.36;66.04
78590;BME280;67888;50.228;7.828;2023-03-05T11:46:47;99097.47;;;4.10;65.96
78590;BME280;67888;50.228;7.828;2023-03-05T11:52:07;99090.13;;;4.30;64.98
78590;BME280;67888;50.228;7.828;2023-03-05T11:57:13;99070.41;;;4.22;61.49
78590;BME280;67888;50.228;7.828;2023-03-05T12:02:22;99065.63;;;4.83;60.08
78590;BME280;67888;50.228;7.828;2023-03-05T12:07:45;99053.50;;;4.48;61.34
78590;BME280;67888;50.228;7.828;2023-03-05T12:13:22;99061.72;;;4.68;61.60
78590;BME280;67888;50.228;7.828;2023-03-05T12:18:29;99051.50;;;4.79;60.04
78590;BME280;67888;50.228;7.828;2023-03-05T12:23:54;99053.50;;;4.48;61.51
78590;BME280;67888;50.228;7.828;2023-03-05T12:28:56;99030.59;;;4.50;60.29
78590;BME280;67888;50.228;7.828;2023-03-05T12:33:56;99022.28;;;4.25;59.11
78590;BME280;67888;50.228;7.828;2023-03-05T12:38:57;99016.59;;;4.96;59.26
78590;BME280;67888;50.228;7.828;2023-03-05T12:54:36;98996.09;;;4.43;59.60
78590;BME280;67888;50.228;7.828;2023-03-05T12:59:42;98980.16;;;4.56;59.45
78590;BME280;67888;50.228;7.828;2023-03-05T13:04:44;98980.84;;;4.63;58.21
78590;BME280;67888;50.228;7.828;2023-03-05T13:09:54;98974.78;;;4.46;58.22
78590;BME280;67888;50.228;7.828;2023-03-05T13:15:06;98965.94;;;4.47;59.95
78590;BME280;67888;50.228;7.828;2023-03-05T13:20:34;98947.13;;;4.45;59.90
78590;BME280;67888;50.228;7.828;2023-03-05T13:25:36;98951.97;;;4.25;59.60
78590;BME280;67888;50.228;7.828;2023-03-05T13:30:37;98948.44;;;4.31;60.15
78590;BME280;67888;50.228;7.828;2023-03-05T13:35:43;98939.97;;;4.24;60.00
78590;BME280;67888;50.228;7.828;2023-03-05T13:41:00;98933.59;;;4.31;59.47
78590;BME280;67888;50.228;7.828;2023-03-05T13:46:01;98931.97;;;4.14;61.71
78590;BME280;67888;50.228;7.828;2023-03-05T13:51:01;98931.66;;;3.99;62.69
78590;BME280;67888;50.228;7.828;2023-03-05T13:56:16;98931.09;;;3.96;61.85
78590;BME280;67888;50.228;7.828;2023-03-05T14:01:31;98925.06;;;4.08;62.49
78590;BME280;67888;50.228;7.828;2023-03-05T14:06:38;98916.38;;;4.02;61.59
78590;BME280;67888;50.228;7.828;2023-03-05T14:11:40;98910.19;;;3.91;63.05
78590;BME280;67888;50.228;7.828;2023-03-05T14:16:40;98902.84;;;3.88;63.54
78590;BME280;67888;50.228;7.828;2023-03-05T14:21:49;98893.19;;;4.01;65.26
78590;BME280;67888;50.228;7.828;2023-03-05T14:27:14;98895.03;;;3.88;65.52
78590;BME280;67888;50.228;7.828;2023-03-05T14:32:42;98889.22;;;3.98;65.34
78590;BME280;67888;50.228;7.828;2023-03-05T14:37:45;98879.06;;;3.85;63.82
78590;BME280;67888;50.228;7.828;2023-03-05T14:43:00;98869.00;;;3.88;64.88
78590;BME280;67888;50.228;7.828;2023-03-05T14:48:04;98849.66;;;3.84;64.57
78590;BME280;67888;50.228;7.828;2023-03-05T14:53:15;98844.31;;;4.19;64.47
78590;BME280;67888;50.228;7.828;2023-03-05T14:58:19;98830.16;;;4.27;64.00
78590;BME280;67888;50.228;7.828;2023-03-05T15:03:21;98827.97;;;4.07;64.53
78590;BME280;67888;50.228;7.828;2023-03-05T15:08:25;98821.00;;;3.96;63.78
78590;BME280;67888;50.228;7.828;2023-03-05T15:13:26;98807.91;;;4.08;63.19
78590;BME280;67888;50.228;7.828;2023-03-05T15:18:29;98801.53;;;3.99;63.92
78590;BME280;67888;50.228;7.828;2023-03-05T15:23:30;98786.69;;;3.99;63.46
78590;BME280;67888;50.228;7.828;2023-03-05T15:28:37;98795.75;;;3.96;64.46
78590;BME280;67888;50.228;7.828;2023-03-05T15:33:38;98776.09;;;3.89;64.88
78590;BME280;67888;50.228;7.828;2023-03-05T15:38:40;98779.50;;;3.89;65.29
78590;BME280;67888;50.228;7.828;2023-03-05T15:43:42;98766.38;;;3.84;65.15
78590;BME280;67888;50.228;7.828;2023-03-05T15:48:42;98761.13;;;3.96;66.20
78590;BME280;67888;50.228;7.828;2023-03-05T15:53:49;98754.97;;;3.85;66.50
78590;BME280;67888;50.228;7.828;2023-03-05T15:58:49;98754.97;;;3.85;65.84
78590;BME280;67888;50.228;7.828;2023-03-05T16:03:50;98750.25;;;3.99;65.36
78590;BME280;67888;50.228;7.828;2023-03-05T16:08:56;98745.44;;;3.91;64.05
78590;BME280;67888;50.228;7.828;2023-03-05T16:13:58;98738.41;;;3.91;66.07
78590;BME280;67888;50.228;7.828;2023-03-05T16:19:03;98744.31;;;3.87;66.15
78590;BME280;67888;50.228;7.828;2023-03-05T16:24:05;98731.44;;;3.80;66.18
78590;BME280;67888;50.228;7.828;2023-03-05T16:29:06;98729.88;;;3.79;66.88
78590;BME280;67888;50.228;7.828;2023-03-05T16:34:08;98721.34;;;3.84;66.86
78590;BME280;67888;50.228;7.828;2023-03-05T16:39:08;98719.78;;;3.83;66.69
78590;BME280;67888;50.228;7.828;2023-03-05T16:44:09;98721.28;;;3.50;68.37
78590;BME280;67888;50.228;7.828;2023-03-05T16:49:10;98722.59;;;3.65;70.15
78590;BME280;67888;50.228;7.828;2023-03-05T16:54:11;98720.00;;;3.65;69.24
78590;BME280;67888;50.228;7.828;2023-03-05T16:59:11;98727.47;;;3.61;69.50
78590;BME280;67888;50.228;7.828;2023-03-05T17:04:12;98712.81;;;3.43;70.83
78590;BME280;67888;50.228;7.828;2023-03-05T17:09:12;98712.88;;;3.32;72.75
78590;BME280;67888;50.228;7.828;2023-03-05T17:14:12;98708.00;;;3.35;70.94
78590;BME280;67888;50.228;7.828;2023-03-05T17:19:13;98704.38;;;3.36;70.15
78590;BME280;67888;50.228;7.828;2023-03-05T17:24:13;98709.19;;;3.16;72.32
78590;BME280;67888;50.228;7.828;2023-03-05T17:29:14;98703.06;;;3.22;71.61
78590;BME280;67888;50.228;7.828;2023-03-05T17:34:14;98708.19;;;3.05;73.46
78590;BME280;67888;50.228;7.828;2023-03-05T17:39:16;98705.19;;;2.73;75.97
78590;BME280;67888;50.228;7.828;2023-03-05T17:44:18;98695.44;;;3.04;73.73
78590;BME280;67888;50.228;7.828;2023-03-05T17:49:18;98698.78;;;2.53;76.04
78590;BME280;67888;50.228;7.828;2023-03-05T17:54:19;98695.16;;;2.77;74.60
78590;BME280;67888;50.228;7.828;2023-03-05T17:59:19;98696.50;;;2.68;74.86
78590;BME280;67888;50.228;7.828;2023-03-05T18:04:20;98691.28;;;2.79;75.30
78590;BME280;67888;50.228;7.828;2023-03-05T18:09:20;98692.84;;;2.92;73.78
78590;BME280;67888;50.228;7.828;2023-03-05T18:14:21;98694.22;;;2.83;73.94
78590;BME280;67888;50.228;7.828;2023-03-05T18:19:21;98684.97;;;2.87;74.01
78590;BME280;67888;50.228;7.828;2023-03-05T18:24:22;98686.53;;;2.88;74.05
78590;BME280;67888;50.228;7.828;2023-03-05T18:29:22;98677.28;;;2.69;76.14
78590;BME280;67888;50.228;7.828;2023-03-05T18:34:22;98671.22;;;2.63;75.39
78590;BME280;67888;50.228;7.828;2023-03-05T18:39:25;98680.78;;;2.86;74.31
78590;BME280;67888;50.228;7.828;2023-03-05T18:44:28;98669.03;;;2.83;74.21
78590;BME280;67888;50.228;7.828;2023-03-05T18:49:28;98664.28;;;2.80;74.67
78590;BME280;67888;50.228;7.828;2023-03-05T18:54:29;98657.97;;;2.88;74.26
78590;BME280;67888;50.228;7.828;2023-03-05T18:59:31;98658.78;;;2.53;76.97
78590;BME280;67888;50.228;7.828;2023-03-05T19:04:32;98657.34;;;2.34;79.20
78590;BME280;67888;50.228;7.828;2023-03-05T19:09:34;98654.53;;;2.47;77.75
78590;BME280;67888;50.228;7.828;2023-03-05T19:14:52;98656.06;;;2.72;76.67
78590;BME280;67888;50.228;7.828;2023-03-05T19:19:53;98660.63;;;2.65;77.30
78590;BME280;67888;50.228;7.828;2023-03-05T19:24:54;98651.81;;;2.66;76.28
78590;BME280;67888;50.228;7.828;2023-03-05T19:29:55;98640.63;;;2.65;76.39
78590;BME280;67888;50.228;7.828;2023-03-05T19:34:56;98640.38;;;2.67;75.76
78590;BME280;67888;50.228;7.828;2023-03-05T19:39:57;98633.38;;;2.67;74.80
78590;BME280;67888;50.228;7.828;2023-03-05T19:44:57;98630.81;;;2.32;76.20
78590;BME280;67888;50.228;7.828;2023-03-05T19:49:58;98626.56;;;2.26;78.77
78590;BME280;67888;50.228;7.828;2023-03-05T19:54:59;98626.06;;;2.53;76.79
78590;BME280;67888;50.228;7.828;2023-03-05T19:59:59;98619.97;;;2.59;75.39
78590;BME280;67888;50.228;7.828;2023-03-05T20:04:59;98616.72;;;2.28;79.01
78590;BME280;67888;50.228;7.828;2023-03-05T20:10:00;98606.81;;;2.25;79.20
78590;BME280;67888;50.228;7.828;2023-03-05T20:15:01;98604.09;;;2.20;79.22
78590;BME280;67888;50.228;7.828;2023-03-05T20:20:01;98602.03;;;2.34;78.08
78590;BME280;67888;50.228;7.828;2023-03-05T20:25:02;98605.75;;;2.49;77.32
78590;BME280;67888;50.228;7.828;2023-03-05T20:30:05;98605.41;;;2.46;77.41
78590;BME280;67888;50.228;7.828;2023-03-05T20:35:06;98593.66;;;2.43;77.28
78590;BME280;67888;50.228;7.828;2023-03-05T20:40:07;98593.22;;;2.46;76.21
78590;BME280;67888;50.228;7.828;2023-03-05T20:45:08;98588.81;;;2.47;75.32
78590;BME280;67888;50.228;7.828;2023-03-05T20:50:12;98580.59;;;2.50;75.67
78590;BME280;67888;50.228;7.828;2023-03-05T20:55:13;98582.09;;;2.11;77.93
78590;BME280;67888;50.228;7.828;2023-03-05T21:00:14;98577.56;;;2.18;78.65
78590;BME280;67888;50.228;7.828;2023-03-05T21:05:15;98563.69;;;2.24;77.71
78590;BME280;67888;50.228;7.828;2023-03-05T21:10:15;98570.41;;;2.48;75.59
78590;BME280;67888;50.228;7.828;2023-03-05T21:15:19;98564.16;;;2.21;76.87
78590;BME280;67888;50.228;7.828;2023-03-05T21:20:23;98552.19;;;2.20;76.91
78590;BME280;67888;50.228;7.828;2023-03-05T21:25:28;98536.94;;;2.35;76.04
78590;BME280;67888;50.228;7.828;2023-03-05T21:30:30;98529.78;;;2.42;76.82
78590;BME280;67888;50.228;7.828;2023-03-05T21:35:34;98530.59;;;2.31;76.63
78590;BME280;67888;50.228;7.828;2023-03-05T21:40:38;98523.56;;;2.43;74.50
78590;BME280;67888;50.228;7.828;2023-03-05T21:45:43;98504.28;;;2.51;73.82
78590;BME280;67888;50.228;7.828;2023-03-05T21:50:47;98502.19;;;2.65;72.07
78590;BME280;67888;50.228;7.828;2023-03-05T21:55:48;98503.47;;;2.50;73.55
78590;BME280;67888;50.228;7.828;2023-03-05T22:01:04;98488.66;;;2.63;72.37
78590;BME280;67888;50.228;7.828;2023-03-05T22:06:09;98485.88;;;2.53;72.47
78590;BME280;67888;50.228;7.828;2023-03-05T22:11:11;98485.75;;;2.47;72.86
78590;BME280;67888;50.228;7.828;2023-03-05T22:16:22;98474.13;;;2.50;72.57
78590;BME280;67888;50.228;7.828;2023-03-05T22:21:24;98462.56;;;2.58;71.82
78590;BME280;67888;50.228;7.828;2023-03-05T22:26:33;98456.59;;;2.57;72.65
78590;BME280;67888;50.228;7.828;2023-03-05T22:31:37;98451.44;;;2.45;73.62
78590;BME280;67888;50.228;7.828;2023-03-05T22:36:38;98445.38;;;2.40;74.39
78590;BME280;67888;50.228;7.828;2023-03-05T22:41:40;98443.28;;;2.53;73.82
78590;BME280;67888;50.228;7.828;2023-03-05T22:46:40;98437.72;;;2.62;73.63
78590;BME280;67888;50.228;7.828;2023-03-05T22:51:41;98439.75;;;2.60;73.46
78590;BME280;67888;50.228;7.828;2023-03-05T22:56:41;98426.69;;;2.55;73.91
78590;BME280;67888;50.228;7.828;2023-03-05T23:01:42;98423.56;;;2.53;74.13
78590;BME280;67888;50.228;7.828;2023-03-05T23:06:42;98424.06;;;2.55;73.43
78590;BME280;67888;50.228;7.828;2023-03-05T23:11:42;98413.00;;;2.59;73.38
78590;BME280;67888;50.228;7.828;2023-03-05T23:16:43;98404.97;;;2.61;73.14
78590;BME280;67888;50.228;7.828;2023-03-05T23:21:43;98406.47;;;2.57;73.39
78590;BME280;67888;50.228;7.828;2023-03-05T23:26:44;98404.09;;;2.38;73.95
78590;BME280;67888;50.228;7.828;2023-03-05T23:31:44;98392.19;;;2.42;73.82
78590;BME280;67888;50.228;7.828;2023-03-05T23:36:44;98394.56;;;2.44;72.96
78590;BME280;67888;50.228;7.828;2023-03-05T23:41:45;98388.50;;;2.38;72.99
78590;BME280;67888;50.228;7.828;2023-03-05T23:46:45;98389.06;;;2.40;73.19
78590;BME280;67888;50.228;7.828;2023-03-05T23:51:45;98393.38;;;2.35;73.68
78590;BME280;67888;50.228;7.828;2023-03-05T23:56:46;98394.72;;;2.37;73.47
